createdAt,value
2022-08-07T00:00:56.839Z,17.38
2022-08-07T00:06:01.212Z,17.89
2022-08-07T00:11:04.874Z,17.53
2022-08-07T00:16:07.612Z,15.90
2022-08-07T00:21:56.593Z,14.80
2022-08-07T00:26:49.444Z,13.96
2022-08-07T00:31:53.626Z,13.95
2022-08-07T00:36:55.844Z,14.71
2022-08-07T00:42:01.384Z,15.05
2022-08-07T00:47:06.447Z,15.23
2022-08-07T00:52:17.581Z,15.41
2022-08-07T00:57:23.081Z,15.55
2022-08-07T01:02:28.868Z,15.58
2022-08-07T01:07:31.713Z,15.54
2022-08-07T01:12:33.690Z,15.40
2022-08-07T01:17:35.585Z,15.34
2022-08-07T01:22:38.182Z,15.30
2022-08-07T01:27:55.602Z,15.29
2022-08-07T01:32:58.322Z,15.26
2022-08-07T01:37:59.587Z,15.22
2022-08-07T01:43:00.836Z,15.30
2022-08-07T01:48:19.976Z,15.35
2022-08-07T01:54:08.583Z,15.60
2022-08-07T01:58:53.544Z,16.49
2022-08-07T02:04:02.849Z,16.28
2022-08-07T02:09:09.108Z,14.74
2022-08-07T02:14:36.102Z,13.79
2022-08-07T02:20:07.817Z,13.10
2022-08-07T02:25:00.054Z,13.63
2022-08-07T02:30:07.064Z,15.80
2022-08-07T02:35:10.304Z,16.95
2022-08-07T02:40:30.742Z,16.48
2022-08-07T02:46:00.659Z,14.70
2022-08-07T02:51:06.374Z,13.66
2022-08-07T02:56:21.276Z,13.01
2022-08-07T03:01:35.370Z,13.60
2022-08-07T03:06:38.991Z,15.56
2022-08-07T03:11:52.206Z,16.21
2022-08-07T03:16:59.280Z,16.02
2022-08-07T03:22:01.578Z,14.63
2022-08-07T03:27:05.503Z,13.69
2022-08-07T03:32:13.019Z,13.08
2022-08-07T03:37:19.048Z,13.45
2022-08-07T03:42:29.559Z,15.23
2022-08-07T03:47:47.931Z,16.20
2022-08-07T03:52:55.046Z,16.42
2022-08-07T03:58:32.482Z,15.19
2022-08-07T04:03:19.023Z,14.19
2022-08-07T04:08:23.210Z,13.56
2022-08-07T04:13:27.574Z,13.91
2022-08-07T04:18:58.695Z,15.78
2022-08-07T04:24:06.008Z,16.96
2022-08-07T04:29:10.992Z,16.85
2022-08-07T04:34:16.602Z,15.46
2022-08-07T04:39:21.845Z,14.63
2022-08-07T04:44:27.008Z,14.16
2022-08-07T04:50:04.526Z,14.62
2022-08-07T04:58:07.319Z,16.53
2022-08-07T05:00:46.898Z,17.34
2022-08-07T05:05:58.147Z,17.81
2022-08-07T05:11:19.483Z,17.01
2022-08-07T05:16:22.134Z,15.88
2022-08-07T05:22:00.220Z,15.25
2022-08-07T05:26:54.236Z,15.41
2022-08-07T05:31:56.761Z,19.55
2022-08-07T05:36:58.683Z,23.64
2022-08-07T05:42:05.368Z,26.14
2022-08-07T05:47:17.872Z,28.43
2022-08-07T05:52:29.769Z,30.30
2022-08-07T05:57:34.640Z,31.56
2022-08-07T06:02:39.786Z,32.64
2022-08-07T06:08:14.504Z,33.22
2022-08-07T06:13:05.236Z,33.83
2022-08-07T06:18:15.852Z,34.50
2022-08-07T06:23:46.850Z,34.90
2022-08-07T06:28:59.333Z,35.01
2022-08-07T06:34:02.475Z,35.10
2022-08-07T06:40:16.544Z,35.13
2022-08-07T06:44:26.577Z,35.01
2022-08-07T06:49:35.603Z,35.10
2022-08-07T06:55:33.881Z,35.06
2022-08-07T07:00:18.302Z,35.30
2022-08-07T07:06:04.860Z,35.46
2022-08-07T07:10:47.267Z,35.37
2022-08-07T07:16:02.332Z,34.88
2022-08-07T07:21:19.232Z,34.56
2022-08-07T07:26:34.473Z,34.47
2022-08-07T07:31:44.497Z,34.43
2022-08-07T07:36:52.656Z,34.16
2022-08-07T07:42:08.896Z,34.06
2022-08-07T07:47:23.069Z,33.85
2022-08-07T07:52:26.277Z,33.43
2022-08-07T07:57:43.900Z,33.02
2022-08-07T08:03:04.816Z,32.63
2022-08-07T08:08:10.116Z,32.05
2022-08-07T08:13:53.424Z,30.87
2022-08-07T08:18:56.007Z,30.13
2022-08-07T08:24:36.265Z,29.70
2022-08-07T08:29:54.703Z,29.18
2022-08-07T08:34:58.448Z,29.05
2022-08-07T08:40:01.166Z,28.97
2022-08-07T08:45:41.546Z,28.66
2022-08-07T08:51:03.316Z,28.53
2022-08-07T08:56:24.675Z,28.35
2022-08-07T09:01:46.486Z,28.15
2022-08-07T09:07:12.273Z,27.67
2022-08-07T09:12:33.106Z,27.51
2022-08-07T09:18:16.745Z,27.53
2022-08-07T09:24:28.801Z,27.67
2022-08-07T09:30:05.754Z,27.81
2022-08-07T09:34:53.958Z,27.98
2022-08-07T09:40:05.780Z,27.96
2022-08-07T09:47:20.048Z,27.82
2022-08-07T09:50:52.414Z,27.82
2022-08-07T09:56:34.138Z,27.75
2022-08-07T10:02:16.715Z,27.56
2022-08-07T10:07:55.362Z,27.30
2022-08-07T10:14:01.378Z,27.40
2022-08-07T10:19:21.611Z,27.61
2022-08-07T10:25:00.052Z,27.54
2022-08-07T10:30:33.009Z,27.61
2022-08-07T10:36:05.181Z,27.10
2022-08-07T10:41:47.210Z,26.57
2022-08-07T10:46:53.679Z,26.56
2022-08-07T10:52:22.523Z,26.72
2022-08-07T10:58:12.215Z,26.97
2022-08-07T11:03:37.923Z,27.52
2022-08-07T11:08:56.900Z,27.76
2022-08-07T11:14:46.136Z,27.54
2022-08-07T11:19:55.218Z,27.60
2022-08-07T11:25:15.237Z,27.72
2022-08-07T11:30:19.998Z,27.75
2022-08-07T11:36:05.810Z,27.68
2022-08-07T11:41:18.238Z,27.75
2022-08-07T11:47:03.978Z,27.91
2022-08-07T11:52:35.819Z,27.82
2022-08-07T11:58:16.703Z,27.21
2022-08-07T12:03:59.707Z,26.53
2022-08-07T12:09:16.412Z,26.24
2022-08-07T12:14:21.178Z,25.92
2022-08-07T12:19:25.175Z,25.89
2022-08-07T12:25:08.057Z,25.66
2022-08-07T12:30:10.277Z,25.45
2022-08-07T12:35:15.287Z,25.42
2022-08-07T12:40:46.414Z,25.40
2022-08-07T12:45:52.260Z,25.45
2022-08-07T12:51:12.868Z,25.50
2022-08-07T12:56:26.629Z,25.54
2022-08-07T13:01:50.114Z,25.47
2022-08-07T13:08:13.663Z,25.46
2022-08-07T13:13:01.597Z,25.49
2022-08-07T13:18:26.510Z,25.57
2022-08-07T13:24:01.537Z,25.84
2022-08-07T13:29:06.754Z,26.26
2022-08-07T13:34:32.595Z,26.67
2022-08-07T13:40:34.847Z,26.82
2022-08-07T13:46:12.195Z,26.58
2022-08-07T13:51:00.583Z,26.09
2022-08-07T13:56:04.666Z,25.79
2022-08-07T14:01:15.795Z,25.59
2022-08-07T14:06:24.743Z,25.56
2022-08-07T14:11:53.398Z,25.70
2022-08-07T14:17:32.067Z,26.03
2022-08-07T14:22:34.616Z,26.37
2022-08-07T14:28:11.750Z,26.43
2022-08-07T14:33:04.660Z,26.19
2022-08-07T14:38:08.497Z,25.99
2022-08-07T14:43:58.070Z,25.84
2022-08-07T14:48:56.578Z,25.64
2022-08-07T14:54:30.234Z,25.55
2022-08-07T15:00:05.354Z,25.40
2022-08-07T15:04:53.292Z,25.33
2022-08-07T15:10:01.332Z,25.26
2022-08-07T15:15:22.235Z,25.19
2022-08-07T15:25:55.936Z,24.80
2022-08-07T15:31:05.556Z,24.50
2022-08-07T15:36:08.711Z,24.26
2022-08-07T15:41:24.446Z,24.15
2022-08-07T15:46:49.951Z,24.13
2022-08-07T15:57:00.378Z,23.71
2022-08-07T16:02:04.334Z,23.47
2022-08-07T16:08:30.536Z,23.30
2022-08-07T16:13:05.382Z,23.04
2022-08-07T16:18:50.759Z,22.89
2022-08-07T16:24:35.106Z,23.02
2022-08-07T16:30:11.001Z,23.26
2022-08-07T16:35:58.886Z,23.28
2022-08-07T16:41:41.740Z,23.15
2022-08-07T16:47:45.235Z,22.99
2022-08-07T16:54:02.907Z,22.97
2022-08-07T16:59:15.277Z,22.97
2022-08-07T17:04:35.061Z,23.00
2022-08-07T17:10:08.199Z,22.82
2022-08-07T17:15:13.099Z,22.53
2022-08-07T17:20:40.527Z,22.44
2022-08-07T17:25:52.893Z,22.17
2022-08-07T17:30:59.485Z,21.98
2022-08-07T17:36:19.924Z,21.85
2022-08-07T17:42:02.041Z,21.73
2022-08-07T17:47:16.934Z,21.60
2022-08-07T17:52:46.542Z,21.42
2022-08-07T17:58:01.639Z,21.21
2022-08-07T18:03:18.113Z,21.01
2022-08-07T18:08:27.453Z,20.82
2022-08-07T18:14:10.105Z,20.62
2022-08-07T18:21:12.640Z,20.41
2022-08-07T18:24:51.456Z,20.20
2022-08-07T18:30:31.377Z,20.03
2022-08-07T18:35:51.959Z,19.86
2022-08-07T18:41:09.345Z,19.70
2022-08-07T18:46:27.755Z,19.53
2022-08-07T18:52:35.135Z,19.37
2022-08-07T18:57:29.659Z,19.17
2022-08-07T19:03:16.553Z,18.98
2022-08-07T19:08:33.068Z,18.84
2022-08-07T19:14:11.708Z,18.73
2022-08-07T19:19:48.761Z,18.62
2022-08-07T19:24:52.200Z,18.53
2022-08-07T19:31:05.678Z,18.44
2022-08-07T19:35:26.088Z,18.34
2022-08-07T19:40:35.956Z,18.23
2022-08-07T19:46:04.816Z,18.12
2022-08-07T19:51:19.993Z,18.00
2022-08-07T19:58:01.917Z,17.92
2022-08-07T20:01:57.862Z,17.83
2022-08-07T20:06:59.986Z,17.74
2022-08-07T20:12:34.922Z,17.63
2022-08-07T20:17:31.890Z,17.53
2022-08-07T20:22:45.339Z,17.42
2022-08-07T20:27:58.050Z,17.33
2022-08-07T20:33:03.936Z,17.25
2022-08-07T20:38:07.067Z,17.18
2022-08-07T20:43:19.382Z,17.12
2022-08-07T20:48:30.327Z,17.08
2022-08-07T20:54:03.141Z,17.02
2022-08-07T20:59:03.609Z,17.01
2022-08-07T21:04:22.947Z,17.00
2022-08-07T21:09:51.520Z,16.99
2022-08-07T21:14:56.215Z,16.98
2022-08-07T21:20:04.869Z,16.97
2022-08-07T21:25:19.484Z,16.96
2022-08-07T21:30:31.274Z,16.96
2022-08-07T21:36:31.205Z,16.96
2022-08-07T21:42:00.530Z,16.92
2022-08-07T21:47:12.340Z,16.89
2022-08-07T21:52:55.664Z,16.85
2022-08-07T21:58:12.265Z,16.81
2022-08-07T22:03:47.229Z,16.79
2022-08-07T22:08:55.224Z,16.77
2022-08-07T22:13:59.330Z,16.73
2022-08-07T22:19:08.174Z,16.68
2022-08-07T22:24:16.725Z,16.65
2022-08-07T22:29:48.407Z,16.62
2022-08-07T22:34:56.059Z,16.58
2022-08-07T22:40:17.337Z,16.56
2022-08-07T22:46:21.280Z,16.52
2022-08-07T22:51:14.670Z,17.19
2022-08-07T22:56:28.777Z,18.46
2022-08-07T23:01:49.336Z,19.69
2022-08-07T23:07:33.634Z,20.08
2022-08-07T23:12:54.894Z,18.68
2022-08-07T23:18:05.467Z,17.97
2022-08-07T23:24:06.426Z,17.54
2022-08-07T23:29:43.540Z,17.16
2022-08-07T23:35:06.692Z,16.86
2022-08-07T23:40:14.187Z,16.61
2022-08-07T23:46:01.726Z,16.41
2022-08-07T23:50:54.567Z,16.20
2022-08-07T23:56:13.757Z,16.05
